Time;durP1;ratioP1;P1;durP2;ratioP2;P2;SDS_P1;SDS_P2;PMS_P1;PMS_P2;Temp;Humidity;BMP_temperature;BMP_pressure;BME280_temperature;BME280_humidity;BME280_pressure;Samples;Min_cycle;Max_cycle;Signal;HPM_P1;HPM_P2
2022/11/06 00:01:24;;;;;;;;;;;;;;;;;;5092735;28;1588;-51
2022/11/06 00:03:52;;;;;;;;;;;;;;;;;;5092982;28;1702;-46
2022/11/06 00:09:06;;;;;;;;;;;;;;;;;;5092129;28;1712;-48
2022/11/06 00:11:35;;;;;;;;;;;;;;;;;;5091385;28;1891;-48
2022/11/06 00:14:02;;;;;;;;;;;;;;;;;;5093094;28;1693;-47
2022/11/06 00:16:29;;;;;;;;;;;;;;;;;;5092392;28;2049;-49
2022/11/06 00:18:59;;;;;;;;;;;;;;;;;;5092367;28;1885;-49
2022/11/06 00:21:27;;;;;;;;;;;;;;;;;;5092550;28;2112;-47
2022/11/06 00:23:55;;;;;;;;;;;;;;;;;;5092516;28;1726;-49
2022/11/06 00:26:23;;;;;;;;;;;;;;;;;;5092361;28;1938;-49
2022/11/06 00:28:50;;;;;;;;;;;;;;;;;;5091110;28;1967;-46
2022/11/06 00:31:19;;;;;;;;;;;;;;;;;;5092236;28;2261;-47
2022/11/06 00:33:46;;;;;;;;;;;;;;;;;;5092145;28;1829;-48
2022/11/06 00:36:15;;;;;;;;;;;;;;;;;;5092431;28;1897;-45
2022/11/06 00:38:42;;;;;;;;;;;;;;;;;;5092369;28;1945;-49
2022/11/06 00:41:14;;;;;;;;;;;;;;;;;;5092068;28;1607;-47
2022/11/06 00:43:42;;;;;;;;;;;;;;;;;;5092018;28;2064;-49
2022/11/06 00:46:10;;;;;;;;;;;;;;;;;;5092114;28;2173;-45
2022/11/06 00:48:38;;;;;;;;;;;;;;;;;;5092267;28;1973;-47
2022/11/06 00:51:06;;;;;;;;;;;;;;;;;;5100173;28;1847;-47
2022/11/06 00:53:34;;;;;;;;;;;;;;;;;;5112433;28;1903;-47
2022/11/06 00:56:19;;;;;;;;;;;;;;;;;;5112070;28;1990;-48
2022/11/06 00:58:46;;;;;;;;;;;;;;;;;;5110917;28;1968;-47
2022/11/06 01:01:23;;;;;;;;;;;;;;;;;;5112473;28;2180;-49
2022/11/06 01:03:55;;;;;;;;;;;;;;;;;;5112242;28;2030;-46
2022/11/06 01:06:23;;;;;;;;;;;;;;;;;;5111704;27;2057;-45
2022/11/06 01:08:50;;;;;;;;;;;;;;;;;;5112055;28;1801;-48
2022/11/06 01:11:18;;;;;;;;;;;;;;;;;;5111960;28;2286;-50
2022/11/06 01:13:47;;;;;;;;;;;;;;;;;;5112073;28;1658;-48
2022/11/06 01:16:15;;;;;;;;;;;;;;;;;;5111931;28;1974;-49
2022/11/06 01:18:42;;;;;;;;;;;;;;;;;;5111866;28;1797;-49
2022/11/06 01:21:11;;;;;;;;;;;;;;;;;;5112045;28;1932;-49
2022/11/06 01:23:39;;;;;;;;;;;;;;;;;;5112109;28;2342;-47
2022/11/06 01:26:07;;;;;;;;;;;;;;;;;;5112152;28;1949;-48
2022/11/06 01:28:34;;;;;;;;;;;;;;;;;;5111801;28;2036;-45
2022/11/06 01:31:02;;;;;;;;;;;;;;;;;;5111668;28;1734;-48
2022/11/06 01:33:29;;;;;;;;;;;;;;;;;;5111695;28;1984;-46
2022/11/06 01:35:56;;;;;;;;;;;;;;;;;;5111538;28;1779;-45
2022/11/06 01:38:24;;;;;;;;;;;;;;;;;;5111811;28;1338;-49
2022/11/06 01:40:51;;;;;;;;;;;;;;;;;;5111585;28;2135;-47
2022/11/06 01:43:19;;;;;;;;;;;;;;;;;;5111548;28;1959;-47
2022/11/06 01:45:47;;;;;;;;;;;;;;;;;;5111314;28;1476;-46
2022/11/06 01:48:15;;;;;;;;;;;;;;;;;;5111290;28;2066;-46
2022/11/06 01:50:43;;;;;;;;;;;;;;;;;;5107002;28;1834;-48
2022/11/06 01:53:11;;;;;;;;;;;;;;;;;;5091355;28;1951;-48
2022/11/06 01:55:40;;;;;;;;;;;;;;;;;;5091229;28;2213;-48
2022/11/06 01:58:09;;;;;;;;;;;;;;;;;;5091089;28;1803;-49
2022/11/06 02:00:37;;;;;;;;;;;;;;;;;;5090965;28;1405;-45
2022/11/06 02:03:04;;;;;;;;;;;;;;;;;;5091207;28;1827;-49
2022/11/06 02:05:31;;;;;;;;;;;;;;;;;;5089721;28;2068;-51
2022/11/06 02:07:59;;;;;;;;;;;;;;;;;;5090924;28;2008;-46
2022/11/06 02:10:27;;;;;;;;;;;;;;;;;;5091092;28;1854;-49
2022/11/06 02:13:14;;;;;;;;;;;;;;;;;;5090978;28;1900;-46
2022/11/06 02:15:59;;;;;;;;;;;;;;;;;;5091256;28;1729;-45
2022/11/06 02:18:37;;;;;;;;;;;;;;;;;;5090900;28;2082;-44
2022/11/06 02:21:39;;;;;;;;;;;;;;;;;;5090755;28;1386;-47
2022/11/06 02:24:12;;;;;;;;;;;;;;;;;;5041164;28;2031;-44
2022/11/06 02:26:52;;;;;;;;;;;;;;;;;;5084500;28;1971;-46
2022/11/06 02:29:20;;;;;;;;;;;;;;;;;;5090713;28;1506;-43
2022/11/06 02:31:49;;;;;;;;;;;;;;;;;;5091480;28;1786;-46
2022/11/06 02:34:17;;;;;;;;;;;;;;;;;;5093065;28;1848;-46
2022/11/06 02:37:05;;;;;;;;;;;;;;;;;;5094626;28;1989;-46
2022/11/06 02:39:34;;;;;;;;;;;;;;;;;;5094506;28;1770;-48
2022/11/06 02:42:02;;;;;;;;;;;;;;;;;;5094656;28;1771;-47
2022/11/06 02:44:31;;;;;;;;;;;;;;;;;;5094269;28;2052;-47
2022/11/06 02:47:00;;;;;;;;;;;;;;;;;;5094573;28;2363;-48
2022/11/06 02:49:46;;;;;;;;;;;;;;;;;;5094513;28;2086;-48
2022/11/06 02:52:17;;;;;;;;;;;;;;;;;;5111869;28;1970;-47
2022/11/06 02:54:54;;;;;;;;;;;;;;;;;;5114826;28;1775;-48
2022/11/06 02:57:23;;;;;;;;;;;;;;;;;;5114221;28;1965;-47
2022/11/06 02:59:53;;;;;;;;;;;;;;;;;;5113169;28;1795;-48
2022/11/06 03:02:24;;;;;;;;;;;;;;;;;;5114284;27;2119;-48
2022/11/06 03:04:58;;;;;;;;;;;;;;;;;;5114489;28;1562;-48
2022/11/06 03:07:50;;;;;;;;;;;;;;;;;;5113796;28;1957;-47
2022/11/06 03:10:17;;;;;;;;;;;;;;;;;;5114424;28;1538;-49
2022/11/06 03:12:55;;;;;;;;;;;;;;;;;;5114499;28;1849;-48
2022/11/06 03:15:40;;;;;;;;;;;;;;;;;;5114275;28;1666;-45
2022/11/06 03:18:25;;;;;;;;;;;;;;;;;;5114041;28;2069;-49
2022/11/06 03:20:52;;;;;;;;;;;;;;;;;;5113952;28;2189;-47
2022/11/06 03:23:23;;;;;;;;;;;;;;;;;;5114153;28;1863;-46
2022/11/06 03:26:11;;;;;;;;;;;;;;;;;;5114092;28;2006;-47
2022/11/06 03:28:42;;;;;;;;;;;;;;;;;;5113779;28;2266;-49
2022/11/06 03:31:12;;;;;;;;;;;;;;;;;;5114056;28;1724;-51
2022/11/06 03:33:42;;;;;;;;;;;;;;;;;;5113863;28;2239;-49
2022/11/06 03:36:12;;;;;;;;;;;;;;;;;;5113723;28;1817;-45
2022/11/06 03:38:42;;;;;;;;;;;;;;;;;;5113817;28;1877;-46
2022/11/06 03:41:15;;;;;;;;;;;;;;;;;;5113852;28;2222;-46
2022/11/06 03:43:43;;;;;;;;;;;;;;;;;;5112079;28;1869;-49
2022/11/06 03:46:12;;;;;;;;;;;;;;;;;;5113721;28;1545;-49
2022/11/06 03:48:40;;;;;;;;;;;;;;;;;;5113348;28;1953;-48
2022/11/06 03:51:19;;;;;;;;;;;;;;;;;;5105300;28;2245;-47
2022/11/06 03:53:48;;;;;;;;;;;;;;;;;;5093191;28;1802;-48
2022/11/06 03:56:22;;;;;;;;;;;;;;;;;;5092166;28;2137;-47
2022/11/06 03:58:50;;;;;;;;;;;;;;;;;;5093123;28;1982;-49
2022/11/06 04:01:20;;;;;;;;;;;;;;;;;;5093069;28;1843;-48
2022/11/06 04:03:58;;;;;;;;;;;;;;;;;;5091872;28;1786;-49
2022/11/06 04:06:29;;;;;;;;;;;;;;;;;;5092883;28;1983;-48
2022/11/06 04:14:31;;;;;;;;;;;;;;;;;;5092887;28;1688;-47
2022/11/06 04:17:01;;;;;;;;;;;;;;;;;;5092402;28;1702;-51
2022/11/06 04:19:28;;;;;;;;;;;;;;;;;;5092690;28;2050;-46
2022/11/06 04:22:13;;;;;;;;;;;;;;;;;;5092677;28;1874;-46
2022/11/06 04:27:33;;;;;;;;;;;;;;;;;;5091116;28;2486;-48
2022/11/06 04:30:05;;;;;;;;;;;;;;;;;;5092457;28;1735;-46
2022/11/06 04:32:38;;;;;;;;;;;;;;;;;;5092167;28;1829;-47
2022/11/06 04:35:11;;;;;;;;;;;;;;;;;;5092480;28;2104;-50
2022/11/06 04:37:41;;;;;;;;;;;;;;;;;;5092198;28;1882;-47
2022/11/06 04:40:11;;;;;;;;;;;;;;;;;;5092118;28;1956;-46
2022/11/06 04:42:40;;;;;;;;;;;;;;;;;;5092172;28;1401;-47
2022/11/06 04:45:12;;;;;;;;;;;;;;;;;;5092038;28;1867;-48
2022/11/06 04:47:40;;;;;;;;;;;;;;;;;;5092215;28;1978;-48
2022/11/06 04:50:08;;;;;;;;;;;;;;;;;;5092101;28;2254;-46
2022/11/06 04:52:35;;;;;;;;;;;;;;;;;;5092059;28;1693;-49
2022/11/06 04:55:03;;;;;;;;;;;;;;;;;;5091337;28;1593;-49
2022/11/06 04:57:30;;;;;;;;;;;;;;;;;;5092023;28;2216;-47
2022/11/06 04:59:57;;;;;;;;;;;;;;;;;;5091276;28;1289;-48
2022/11/06 05:02:24;;;;;;;;;;;;;;;;;;5091929;28;2096;-45
2022/11/06 05:04:51;;;;;;;;;;;;;;;;;;5091986;28;1930;-48
2022/11/06 05:07:18;;;;;;;;;;;;;;;;;;5091482;28;1918;-47
2022/11/06 05:09:45;;;;;;;;;;;;;;;;;;5091777;28;1872;-47
2022/11/06 05:12:12;;;;;;;;;;;;;;;;;;5091419;28;2190;-47
2022/11/06 05:14:39;;;;;;;;;;;;;;;;;;5091393;28;1990;-47
2022/11/06 05:17:07;;;;;;;;;;;;;;;;;;5091356;28;1886;-49
2022/11/06 05:19:33;;;;;;;;;;;;;;;;;;5091329;28;1698;-48
2022/11/06 05:24:46;;;;;;;;;;;;;;;;;;5091350;28;1863;-48
2022/11/06 05:27:13;;;;;;;;;;;;;;;;;;5091283;28;2011;-49
2022/11/06 05:29:40;;;;;;;;;;;;;;;;;;5091504;28;1963;-48
2022/11/06 05:32:07;;;;;;;;;;;;;;;;;;5091329;28;2336;-48
2022/11/06 05:34:34;;;;;;;;;;;;;;;;;;5091555;28;2087;-46
2022/11/06 05:37:01;;;;;;;;;;;;;;;;;;5091221;28;1650;-48
2022/11/06 05:39:28;;;;;;;;;;;;;;;;;;5091174;28;1630;-47
2022/11/06 05:41:55;;;;;;;;;;;;;;;;;;5091566;28;1759;-50
2022/11/06 05:44:22;;;;;;;;;;;;;;;;;;5096892;28;1865;-48
2022/11/06 05:46:49;;;;;;;;;;;;;;;;;;5111772;28;2180;-48
2022/11/06 05:49:17;;;;;;;;;;;;;;;;;;5111501;28;2012;-47
2022/11/06 05:51:44;;;;;;;;;;;;;;;;;;5097890;28;1824;-45
2022/11/06 05:54:12;;;;;;;;;;;;;;;;;;5091105;28;1585;-48
2022/11/06 05:56:39;;;;;;;;;;;;;;;;;;5091116;28;2110;-47
2022/11/06 05:59:07;;;;;;;;;;;;;;;;;;5091395;28;2501;-49
2022/11/06 06:01:34;;;;;;;;;;;;;;;;;;5091265;28;1483;-49
2022/11/06 06:04:01;;;;;;;;;;;;;;;;;;5091205;28;2096;-51
2022/11/06 06:06:28;;;;;;;;;;;;;;;;;;5091041;28;1755;-48
2022/11/06 06:08:55;;;;;;;;;;;;;;;;;;5095207;28;2002;-45
2022/11/06 06:11:22;;;;;;;;;;;;;;;;;;5095293;28;2163;-47
2022/11/06 06:13:49;;;;;;;;;;;;;;;;;;5095319;28;1874;-47
2022/11/06 06:16:16;;;;;;;;;;;;;;;;;;5095060;28;1542;-47
2022/11/06 06:18:43;;;;;;;;;;;;;;;;;;5094858;28;2158;-48
2022/11/06 06:21:10;;;;;;;;;;;;;;;;;;5094896;28;1708;-48
2022/11/06 06:23:37;;;;;;;;;;;;;;;;;;5095156;28;2080;-47
2022/11/06 06:26:04;;;;;;;;;;;;;;;;;;5095037;28;2028;-52
2022/11/06 06:28:31;;;;;;;;;;;;;;;;;;5094685;28;1991;-47
2022/11/06 06:31:02;;;;;;;;;;;;;;;;;;5094820;28;1616;-47
2022/11/06 06:33:31;;;;;;;;;;;;;;;;;;5094586;28;1790;-47
2022/11/06 06:36:01;;;;;;;;;;;;;;;;;;5094906;28;2214;-49
2022/11/06 06:38:28;;;;;;;;;;;;;;;;;;5094769;28;1926;-47
2022/11/06 06:40:59;;;;;;;;;;;;;;;;;;5094755;28;1853;-48
2022/11/06 06:43:26;;;;;;;;;;;;;;;;;;5104400;27;10138;-48
2022/11/06 06:45:56;;;;;;;;;;;;;;;;;;5114763;28;1912;-47
2022/11/06 06:48:23;;;;;;;;;;;;;;;;;;5114681;28;1980;-45
2022/11/06 06:50:50;;;;;;;;;;;;;;;;;;5114712;28;1574;-47
2022/11/06 06:53:17;;;;;;;;;;;;;;;;;;5114584;28;1701;-47
2022/11/06 06:55:44;;;;;;;;;;;;;;;;;;5114606;28;1625;-45
2022/11/06 06:58:11;;;;;;;;;;;;;;;;;;5114489;28;1641;-44
2022/11/06 07:00:43;;;;;;;;;;;;;;;;;;5114260;28;1884;-51
2022/11/06 07:03:11;;;;;;;;;;;;;;;;;;5114563;28;1740;-47
2022/11/06 07:05:38;;;;;;;;;;;;;;;;;;5114271;28;2182;-49
2022/11/06 07:08:05;;;;;;;;;;;;;;;;;;5114525;28;1912;-51
2022/11/06 07:10:32;;;;;;;;;;;;;;;;;;5114139;28;1623;-47
2022/11/06 07:13:00;;;;;;;;;;;;;;;;;;5114364;28;1857;-48
2022/11/06 07:15:27;;;;;;;;;;;;;;;;;;5114468;28;2134;-47
2022/11/06 07:17:54;;;;;;;;;;;;;;;;;;5113978;28;1664;-45
2022/11/06 07:20:22;;;;;;;;;;;;;;;;;;5114072;28;1780;-46
2022/11/06 07:22:48;;;;;;;;;;;;;;;;;;5113970;28;1797;-48
2022/11/06 07:25:15;;;;;;;;;;;;;;;;;;5126872;27;1846;-48
2022/11/06 07:27:42;;;;;;;;;;;;;;;;;;5134257;27;2099;-48
2022/11/06 07:30:10;;;;;;;;;;;;;;;;;;5134774;27;1868;-45
2022/11/06 07:32:37;;;;;;;;;;;;;;;;;;5134618;27;1846;-45
2022/11/06 07:35:04;;;;;;;;;;;;;;;;;;5134248;27;1821;-45
2022/11/06 07:37:31;;;;;;;;;;;;;;;;;;5134636;27;1992;-44
2022/11/06 07:39:58;;;;;;;;;;;;;;;;;;5134486;27;2089;-48
2022/11/06 07:42:26;;;;;;;;;;;;;;;;;;5134395;27;1805;-49
2022/11/06 07:45:01;;;;;;;;;;;;;;;;;;5134595;27;1686;-47
2022/11/06 07:47:29;;;;;;;;;;;;;;;;;;5134053;27;1924;-48
2022/11/06 07:49:56;;;;;;;;;;;;;;;;;;5134192;27;2008;-49
2022/11/06 07:52:23;;;;;;;;;;;;;;;;;;5114720;27;2057;-46
2022/11/06 07:54:50;;;;;;;;;;;;;;;;;;5113360;28;1656;-47
2022/11/06 07:57:19;;;;;;;;;;;;;;;;;;5113468;28;1445;-45
2022/11/06 07:59:46;;;;;;;;;;;;;;;;;;5113183;27;2303;-46
2022/11/06 08:02:13;;;;;;;;;;;;;;;;;;5113130;28;2153;-47
2022/11/06 08:04:40;;;;;;;;;;;;;;;;;;5113365;28;2010;-42
2022/11/06 08:07:07;;;;;;;;;;;;;;;;;;5113106;28;1719;-48
2022/11/06 08:09:35;;;;;;;;;;;;;;;;;;5113454;28;1917;-48
2022/11/06 08:12:02;;;;;;;;;;;;;;;;;;5113358;28;2114;-47
2022/11/06 08:14:29;;;;;;;;;;;;;;;;;;5112867;28;2165;-44
2022/11/06 08:16:57;;;;;;;;;;;;;;;;;;5113134;28;1688;-47
2022/11/06 08:19:24;;;;;;;;;;;;;;;;;;5112945;28;2034;-49
2022/11/06 08:21:54;;;;;;;;;;;;;;;;;;5112923;28;1624;-50
2022/11/06 08:24:22;;;;;;;;;;;;;;;;;;5112959;28;2083;-48
2022/11/06 08:26:48;;;;;;;;;;;;;;;;;;5112627;28;1794;-46
2022/11/06 08:29:16;;;;;;;;;;;;;;;;;;5112164;28;1980;-48
2022/11/06 08:31:43;;;;;;;;;;;;;;;;;;5112734;28;1816;-47
2022/11/06 08:34:10;;;;;;;;;;;;;;;;;;5112871;27;1939;-46
2022/11/06 08:36:44;;;;;;;;;;;;;;;;;;5112978;28;2046;-45
2022/11/06 08:39:15;;;;;;;;;;;;;;;;;;5117643;27;2036;-46
2022/11/06 08:41:43;;;;;;;;;;;;;;;;;;5133049;27;1419;-46
2022/11/06 08:44:11;;;;;;;;;;;;;;;;;;5132927;27;1868;-50
2022/11/06 08:46:38;;;;;;;;;;;;;;;;;;5133194;27;1649;-44
2022/11/06 08:49:05;;;;;;;;;;;;;;;;;;5133048;27;1923;-46
2022/11/06 08:51:33;;;;;;;;;;;;;;;;;;5120667;27;1911;-45
2022/11/06 08:54:00;;;;;;;;;;;;;;;;;;5112355;28;1665;-46
2022/11/06 08:56:27;;;;;;;;;;;;;;;;;;5112482;28;2079;-45
2022/11/06 08:58:54;;;;;;;;;;;;;;;;;;5112394;28;2130;-43
2022/11/06 09:01:24;;;;;;;;;;;;;;;;;;5112260;28;1881;-49
2022/11/06 09:03:52;;;;;;;;;;;;;;;;;;5112059;28;1915;-43
2022/11/06 09:06:19;;;;;;;;;;;;;;;;;;5111963;28;2121;-44
2022/11/06 09:08:46;;;;;;;;;;;;;;;;;;5112189;28;1980;-48
2022/11/06 09:11:13;;;;;;;;;;;;;;;;;;5111849;28;1954;-47
2022/11/06 09:13:40;;;;;;;;;;;;;;;;;;5112078;28;1795;-47
2022/11/06 09:16:07;;;;;;;;;;;;;;;;;;5111860;28;1845;-46
2022/11/06 09:18:41;;;;;;;;;;;;;;;;;;5111843;28;1798;-49
2022/11/06 09:21:08;;;;;;;;;;;;;;;;;;5112041;28;1795;-45
2022/11/06 09:23:35;;;;;;;;;;;;;;;;;;5125728;27;1794;-46
2022/11/06 09:26:02;;;;;;;;;;;;;;;;;;5124893;27;1829;-47
2022/11/06 09:28:29;;;;;;;;;;;;;;;;;;5123722;27;1984;-44
2022/11/06 09:30:56;;;;;;;;;;;;;;;;;;5113240;27;1776;-44
2022/11/06 09:33:23;;;;;;;;;;;;;;;;;;5118433;27;2036;-47
2022/11/06 09:35:51;;;;;;;;;;;;;;;;;;5121579;27;2069;-49
2022/11/06 09:38:20;;;;;;;;;;;;;;;;;;5117981;27;2030;-47
2022/11/06 09:40:50;;;;;;;;;;;;;;;;;;5121273;27;1771;-47
2022/11/06 09:43:17;;;;;;;;;;;;;;;;;;5122842;27;2129;-46
2022/11/06 09:45:53;;;;;;;;;;;;;;;;;;5117953;27;1642;-46
2022/11/06 09:48:20;;;;;;;;;;;;;;;;;;5125685;28;1898;-47
2022/11/06 09:50:53;;;;;;;;;;;;;;;;;;5125614;28;1625;-47
2022/11/06 09:53:23;;;;;;;;;;;;;;;;;;5124454;27;1992;-45
2022/11/06 09:55:51;;;;;;;;;;;;;;;;;;5127642;28;2102;-44
2022/11/06 09:58:24;;;;;;;;;;;;;;;;;;5116752;28;2510;-49
2022/11/06 10:00:52;;;;;;;;;;;;;;;;;;5121849;28;2049;-44
2022/11/06 10:03:24;;;;;;;;;;;;;;;;;;5119948;28;1856;-47
2022/11/06 10:05:51;;;;;;;;;;;;;;;;;;5126987;28;2116;-44
2022/11/06 10:08:21;;;;;;;;;;;;;;;;;;5119772;28;2029;-44
2022/11/06 10:10:57;;;;;;;;;;;;;;;;;;5125752;28;1861;-46
2022/11/06 10:13:32;;;;;;;;;;;;;;;;;;5118373;28;1950;-43
2022/11/06 10:15:59;;;;;;;;;;;;;;;;;;5118247;28;1863;-46
2022/11/06 10:18:35;;;;;;;;;;;;;;;;;;5115411;27;2033;-47
2022/11/06 10:21:09;;;;;;;;;;;;;;;;;;5111137;28;1914;-48
2022/11/06 10:23:46;;;;;;;;;;;;;;;;;;5111360;28;2021;-45
2022/11/06 10:26:17;;;;;;;;;;;;;;;;;;5111351;28;1942;-45
2022/11/06 10:28:47;;;;;;;;;;;;;;;;;;5111285;28;1940;-43
2022/11/06 10:31:32;;;;;;;;;;;;;;;;;;5111102;28;1952;-45
2022/11/06 10:34:25;;;;;;;;;;;;;;;;;;5110966;28;1702;-47
2022/11/06 10:37:03;;;;;;;;;;;;;;;;;;5109484;28;1730;-46
2022/11/06 10:39:31;;;;;;;;;;;;;;;;;;5110625;28;2147;-43
2022/11/06 10:42:15;;;;;;;;;;;;;;;;;;5111014;28;1496;-47
2022/11/06 10:44:42;;;;;;;;;;;;;;;;;;5111120;28;2099;-45
2022/11/06 10:47:18;;;;;;;;;;;;;;;;;;5110877;28;1830;-45
2022/11/06 10:49:48;;;;;;;;;;;;;;;;;;5110828;28;1919;-48
2022/11/06 10:52:20;;;;;;;;;;;;;;;;;;5129109;27;2059;-43
2022/11/06 10:54:47;;;;;;;;;;;;;;;;;;5135215;27;1523;-45
2022/11/06 10:57:27;;;;;;;;;;;;;;;;;;5135559;27;2068;-44
2022/11/06 10:59:54;;;;;;;;;;;;;;;;;;5134852;27;2203;-44
2022/11/06 11:02:28;;;;;;;;;;;;;;;;;;5134898;27;1845;-46
2022/11/06 11:04:55;;;;;;;;;;;;;;;;;;5135023;27;1630;-48
2022/11/06 11:07:24;;;;;;;;;;;;;;;;;;5135124;27;1495;-45
2022/11/06 11:09:51;;;;;;;;;;;;;;;;;;5135042;27;1901;-46
2022/11/06 11:12:22;;;;;;;;;;;;;;;;;;5132966;27;1964;-48
2022/11/06 11:15:13;;;;;;;;;;;;;;;;;;5134678;27;1793;-44
2022/11/06 11:17:40;;;;;;;;;;;;;;;;;;5129096;27;1914;-44
2022/11/06 11:20:27;;;;;;;;;;;;;;;;;;5134962;27;1861;-46
2022/11/06 11:23:04;;;;;;;;;;;;;;;;;;5134766;27;1665;-43
2022/11/06 11:25:31;;;;;;;;;;;;;;;;;;5134512;27;1933;-44
2022/11/06 11:27:58;;;;;;;;;;;;;;;;;;5134561;27;1827;-47
2022/11/06 11:30:30;;;;;;;;;;;;;;;;;;5134382;27;1919;-45
2022/11/06 11:32:57;;;;;;;;;;;;;;;;;;5134682;27;2209;-43
2022/11/06 11:35:26;;;;;;;;;;;;;;;;;;5134694;27;1457;-43
2022/11/06 11:38:08;;;;;;;;;;;;;;;;;;5134228;27;1778;-44
2022/11/06 11:40:37;;;;;;;;;;;;;;;;;;5134285;27;1454;-44
2022/11/06 11:43:23;;;;;;;;;;;;;;;;;;5134546;27;1871;-43
2022/11/06 11:46:02;;;;;;;;;;;;;;;;;;5134016;27;2110;-43
2022/11/06 11:48:42;;;;;;;;;;;;;;;;;;5134046;27;1965;-44
2022/11/06 11:51:11;;;;;;;;;;;;;;;;;;5125013;27;1903;-45
2022/11/06 11:53:38;;;;;;;;;;;;;;;;;;5113434;28;2397;-44
2022/11/06 11:56:12;;;;;;;;;;;;;;;;;;5113629;28;1783;-44
2022/11/06 11:58:40;;;;;;;;;;;;;;;;;;5113464;27;1900;-44
2022/11/06 12:01:08;;;;;;;;;;;;;;;;;;5113446;28;1696;-45
2022/11/06 12:03:40;;;;;;;;;;;;;;;;;;5113124;28;1752;-45
2022/11/06 12:06:12;;;;;;;;;;;;;;;;;;5112525;28;2124;-46
2022/11/06 12:08:43;;;;;;;;;;;;;;;;;;5121955;27;1980;-44
2022/11/06 12:11:13;;;;;;;;;;;;;;;;;;5133532;27;1819;-46
2022/11/06 12:13:40;;;;;;;;;;;;;;;;;;5133831;27;1827;-46
2022/11/06 12:16:15;;;;;;;;;;;;;;;;;;5133623;27;2075;-42
2022/11/06 12:18:47;;;;;;;;;;;;;;;;;;5133613;27;1808;-44
2022/11/06 12:21:26;;;;;;;;;;;;;;;;;;5133105;27;1906;-45
2022/11/06 12:24:04;;;;;;;;;;;;;;;;;;5133572;27;1677;-42
2022/11/06 12:26:38;;;;;;;;;;;;;;;;;;5133627;27;2184;-46
2022/11/06 12:29:16;;;;;;;;;;;;;;;;;;5133299;27;1911;-43
2022/11/06 12:31:52;;;;;;;;;;;;;;;;;;5133366;27;1568;-46
2022/11/06 12:34:27;;;;;;;;;;;;;;;;;;5133250;27;2032;-45
2022/11/06 12:37:02;;;;;;;;;;;;;;;;;;5128190;27;2286;-42
2022/11/06 12:39:33;;;;;;;;;;;;;;;;;;5112612;28;1758;-44
2022/11/06 12:42:01;;;;;;;;;;;;;;;;;;5112445;28;1875;-46
2022/11/06 12:44:28;;;;;;;;;;;;;;;;;;5112479;28;1809;-45
2022/11/06 12:47:10;;;;;;;;;;;;;;;;;;5112398;28;2101;-43
2022/11/06 12:49:40;;;;;;;;;;;;;;;;;;5112488;28;1918;-44
2022/11/06 12:52:16;;;;;;;;;;;;;;;;;;5112391;28;1658;-42
2022/11/06 12:55:01;;;;;;;;;;;;;;;;;;5112437;28;1458;-43
2022/11/06 12:57:47;;;;;;;;;;;;;;;;;;5112430;28;2168;-43
2022/11/06 13:00:23;;;;;;;;;;;;;;;;;;5112298;28;1605;-46
2022/11/06 13:03:09;;;;;;;;;;;;;;;;;;5112165;28;1548;-43
2022/11/06 13:05:45;;;;;;;;;;;;;;;;;;5111917;28;1980;-42
2022/11/06 13:08:12;;;;;;;;;;;;;;;;;;5112041;28;1314;-45
2022/11/06 13:10:40;;;;;;;;;;;;;;;;;;5111887;28;2032;-43
2022/11/06 13:13:17;;;;;;;;;;;;;;;;;;5112137;28;1664;-43
2022/11/06 13:15:44;;;;;;;;;;;;;;;;;;5111439;28;1959;-46
2022/11/06 13:18:19;;;;;;;;;;;;;;;;;;5111887;28;1980;-43
2022/11/06 13:20:48;;;;;;;;;;;;;;;;;;5111843;28;2041;-40
2022/11/06 13:23:20;;;;;;;;;;;;;;;;;;5112073;28;1892;-43
2022/11/06 13:25:53;;;;;;;;;;;;;;;;;;5110773;28;2162;-43
2022/11/06 13:28:23;;;;;;;;;;;;;;;;;;5111963;28;1947;-45
2022/11/06 13:30:53;;;;;;;;;;;;;;;;;;5112054;28;1974;-43
2022/11/06 13:33:29;;;;;;;;;;;;;;;;;;5110486;28;1999;-44
2022/11/06 13:35:57;;;;;;;;;;;;;;;;;;5111790;28;2237;-45
2022/11/06 13:38:28;;;;;;;;;;;;;;;;;;5111642;28;1941;-45
2022/11/06 13:40:58;;;;;;;;;;;;;;;;;;5111798;28;1473;-43
2022/11/06 13:43:40;;;;;;;;;;;;;;;;;;5116769;27;2078;-43
2022/11/06 13:46:25;;;;;;;;;;;;;;;;;;5127282;27;1848;-45
2022/11/06 13:49:01;;;;;;;;;;;;;;;;;;5111872;28;2185;-42
2022/11/06 13:51:46;;;;;;;;;;;;;;;;;;5111294;28;1899;-43
2022/11/06 13:54:22;;;;;;;;;;;;;;;;;;5111576;28;1971;-44
2022/11/06 13:56:56;;;;;;;;;;;;;;;;;;5111449;28;1509;-43
2022/11/06 13:59:36;;;;;;;;;;;;;;;;;;5111739;28;1703;-43
2022/11/06 14:02:21;;;;;;;;;;;;;;;;;;5111641;28;2177;-43
2022/11/06 14:04:56;;;;;;;;;;;;;;;;;;5111754;28;2003;-42
2022/11/06 14:07:25;;;;;;;;;;;;;;;;;;5111471;28;1700;-42
2022/11/06 14:09:53;;;;;;;;;;;;;;;;;;5111300;28;1914;-42
2022/11/06 14:12:24;;;;;;;;;;;;;;;;;;5111581;28;2018;-50
2022/11/06 14:14:53;;;;;;;;;;;;;;;;;;5111477;28;1412;-43
2022/11/06 14:17:22;;;;;;;;;;;;;;;;;;5111101;28;2336;-43
2022/11/06 14:19:52;;;;;;;;;;;;;;;;;;5111391;28;2019;-42
2022/11/06 14:22:24;;;;;;;;;;;;;;;;;;5110910;28;1619;-42
2022/11/06 14:24:52;;;;;;;;;;;;;;;;;;5110762;28;1832;-42
2022/11/06 14:27:24;;;;;;;;;;;;;;;;;;5111417;28;1975;-42
2022/11/06 14:30:04;;;;;;;;;;;;;;;;;;5115048;28;2230;-42
2022/11/06 14:32:32;;;;;;;;;;;;;;;;;;5115256;28;1722;-46
2022/11/06 14:35:19;;;;;;;;;;;;;;;;;;5114917;28;1792;-42
2022/11/06 14:37:50;;;;;;;;;;;;;;;;;;5115063;28;1586;-42
2022/11/06 14:40:29;;;;;;;;;;;;;;;;;;5114981;28;2110;-43
2022/11/06 14:42:58;;;;;;;;;;;;;;;;;;5113641;28;1746;-44
2022/11/06 14:45:27;;;;;;;;;;;;;;;;;;5115247;28;1959;-42
2022/11/06 14:47:55;;;;;;;;;;;;;;;;;;5115012;28;1563;-44
2022/11/06 14:50:27;;;;;;;;;;;;;;;;;;5114630;28;1912;-43
2022/11/06 14:52:59;;;;;;;;;;;;;;;;;;5113814;28;2036;-44
2022/11/06 14:55:28;;;;;;;;;;;;;;;;;;5113708;28;1864;-44
2022/11/06 14:57:58;;;;;;;;;;;;;;;;;;5114685;28;2049;-43
2022/11/06 15:00:48;;;;;;;;;;;;;;;;;;5114733;28;1627;-44
2022/11/06 15:03:36;;;;;;;;;;;;;;;;;;5114323;28;1750;-45
2022/11/06 15:06:06;;;;;;;;;;;;;;;;;;5114001;28;2417;-41
2022/11/06 15:08:47;;;;;;;;;;;;;;;;;;5114654;28;1831;-42
2022/11/06 15:11:33;;;;;;;;;;;;;;;;;;5147525;27;1982;-42
2022/11/06 15:14:06;;;;;;;;;;;;;;;;;;5114863;27;1750;-44
2022/11/06 15:16:48;;;;;;;;;;;;;;;;;;5114139;28;2211;-44
2022/11/06 15:19:21;;;;;;;;;;;;;;;;;;5113772;28;1974;-43
2022/11/06 15:21:55;;;;;;;;;;;;;;;;;;5114398;28;2051;-44
2022/11/06 15:24:27;;;;;;;;;;;;;;;;;;5113782;28;2104;-42
2022/11/06 15:26:56;;;;;;;;;;;;;;;;;;5114202;27;2161;-43
2022/11/06 15:29:23;;;;;;;;;;;;;;;;;;5113835;28;2291;-43
2022/11/06 15:31:54;;;;;;;;;;;;;;;;;;5114119;28;2140;-43
2022/11/06 15:34:38;;;;;;;;;;;;;;;;;;5112800;28;1631;-44
2022/11/06 15:37:13;;;;;;;;;;;;;;;;;;5114057;28;1667;-44
2022/11/06 15:39:43;;;;;;;;;;;;;;;;;;5113665;28;1644;-45
2022/11/06 15:42:15;;;;;;;;;;;;;;;;;;5114009;27;2270;-44
2022/11/06 15:44:43;;;;;;;;;;;;;;;;;;5113559;28;1603;-47
2022/11/06 15:47:19;;;;;;;;;;;;;;;;;;5113458;28;1890;-43
2022/11/06 15:49:46;;;;;;;;;;;;;;;;;;5113536;28;1902;-45
2022/11/06 15:52:17;;;;;;;;;;;;;;;;;;5131415;27;1731;-46
2022/11/06 15:54:52;;;;;;;;;;;;;;;;;;5134089;27;1449;-46
2022/11/06 15:57:30;;;;;;;;;;;;;;;;;;5134111;27;2150;-45
2022/11/06 16:00:16;;;;;;;;;;;;;;;;;;5134086;27;2195;-45
2022/11/06 16:02:47;;;;;;;;;;;;;;;;;;5133690;27;2069;-44
2022/11/06 16:05:16;;;;;;;;;;;;;;;;;;5133531;27;1605;-43
2022/11/06 16:07:45;;;;;;;;;;;;;;;;;;5133966;27;1985;-43
2022/11/06 16:10:14;;;;;;;;;;;;;;;;;;5133703;27;1963;-42
2022/11/06 16:12:42;;;;;;;;;;;;;;;;;;5133722;27;2007;-43
2022/11/06 16:15:29;;;;;;;;;;;;;;;;;;5133796;27;2112;-44
2022/11/06 16:18:04;;;;;;;;;;;;;;;;;;5133508;27;2087;-44
2022/11/06 16:20:31;;;;;;;;;;;;;;;;;;5133647;27;2000;-47
2022/11/06 16:23:04;;;;;;;;;;;;;;;;;;5132949;27;1955;-43
2022/11/06 16:25:37;;;;;;;;;;;;;;;;;;5133878;27;1879;-43
2022/11/06 16:28:17;;;;;;;;;;;;;;;;;;5133642;27;2071;-44
2022/11/06 16:30:47;;;;;;;;;;;;;;;;;;5133415;27;2083;-44
2022/11/06 16:33:22;;;;;;;;;;;;;;;;;;5133175;27;1812;-45
2022/11/06 16:36:04;;;;;;;;;;;;;;;;;;5133274;27;1666;-44
2022/11/06 16:38:35;;;;;;;;;;;;;;;;;;5132595;27;1943;-43
2022/11/06 16:41:36;;;;;;;;;;;;;;;;;;5131604;27;1957;-43
2022/11/06 16:44:20;;;;;;;;;;;;;;;;;;5133167;27;1937;-43
2022/11/06 16:47:09;;;;;;;;;;;;;;;;;;5133237;27;1701;-44
2022/11/06 16:49:43;;;;;;;;;;;;;;;;;;5133023;27;2185;-44
2022/11/06 16:52:23;;;;;;;;;;;;;;;;;;5113894;27;1457;-43
2022/11/06 16:54:54;;;;;;;;;;;;;;;;;;5111800;28;1905;-47
2022/11/06 16:57:55;;;;;;;;;;;;;;;;;;5112411;28;1791;-43
2022/11/06 17:00:26;;;;;;;;;;;;;;;;;;5100359;28;1921;-43
2022/11/06 17:02:55;;;;;;;;;;;;;;;;;;5112019;28;2223;-42
2022/11/06 17:05:35;;;;;;;;;;;;;;;;;;5112155;28;1597;-45
2022/11/06 17:08:23;;;;;;;;;;;;;;;;;;5112094;28;1697;-43
2022/11/06 17:10:55;;;;;;;;;;;;;;;;;;5110994;28;1904;-44
2022/11/06 17:13:41;;;;;;;;;;;;;;;;;;5112543;28;2171;-44
2022/11/06 17:16:16;;;;;;;;;;;;;;;;;;5111975;28;1771;-45
2022/11/06 17:18:49;;;;;;;;;;;;;;;;;;5112165;28;1944;-43
2022/11/06 17:21:23;;;;;;;;;;;;;;;;;;5112056;28;1799;-44
2022/11/06 17:23:53;;;;;;;;;;;;;;;;;;5111759;28;2135;-42
2022/11/06 17:26:38;;;;;;;;;;;;;;;;;;5111662;28;2100;-43
2022/11/06 17:29:09;;;;;;;;;;;;;;;;;;5110569;28;1872;-43
2022/11/06 17:31:38;;;;;;;;;;;;;;;;;;5110563;28;2011;-45
2022/11/06 17:34:08;;;;;;;;;;;;;;;;;;5111628;28;1335;-43
2022/11/06 17:36:38;;;;;;;;;;;;;;;;;;5111730;28;2079;-42
2022/11/06 17:39:07;;;;;;;;;;;;;;;;;;5111670;28;1862;-42
2022/11/06 17:41:36;;;;;;;;;;;;;;;;;;5111619;28;1905;-43
2022/11/06 17:44:07;;;;;;;;;;;;;;;;;;5109864;28;2168;-45
2022/11/06 17:46:39;;;;;;;;;;;;;;;;;;5110617;28;1961;-41